Time;durP1;ratioP1;P1;durP2;ratioP2;P2;SDS_P1;SDS_P2;PMS_P1;PMS_P2;Temp;Humidity;BMP_temperature;BMP_pressure;BME280_temperature;BME280_humidity;BME280_pressure;Samples;Min_cycle;Max_cycle;Signal;HPM_P1;HPM_P2
2021/06/09 00:00:27;;;;;;;;;5.00;5.00;;;;;;;;5094258;27;8798;-48
2021/06/09 00:02:53;;;;;;;;;5.00;5.00;;;;;;;;5087888;28;8765;-48
2021/06/09 00:05:18;;;;;;;;;5.67;5.67;;;;;;;;5087899;28;8781;-48
2021/06/09 00:07:43;;;;;;;;;4.00;3.67;;;;;;;;5085818;28;8809;-48
2021/06/09 00:10:09;;;;;;;;;6.33;6.33;;;;;;;;5092934;27;8796;-48
2021/06/09 00:12:34;;;;;;;;;5.00;5.00;;;;;;;;5097737;28;8804;-48
2021/06/09 00:14:59;;;;;;;;;5.00;5.00;;;;;;;;5082835;28;8742;-48
2021/06/09 00:17:26;;;;;;;;;6.33;6.00;;;;;;;;5088295;28;8780;-48
2021/06/09 00:19:51;;;;;;;;;4.00;4.00;;;;;;;;5107124;27;8751;-48
2021/06/09 00:22:16;;;;;;;;;6.33;6.33;;;;;;;;5098542;28;8785;-48
2021/06/09 00:24:41;;;;;;;;;5.00;4.33;;;;;;;;5091500;28;8825;-48
2021/06/09 00:27:06;;;;;;;;;5.00;5.00;;;;;;;;5085121;28;8752;-48
2021/06/09 00:29:32;;;;;;;;;4.00;4.00;;;;;;;;5085481;28;9699;-48
2021/06/09 00:31:57;;;;;;;;;4.67;4.67;;;;;;;;5083904;28;8777;-48
2021/06/09 00:34:22;;;;;;;;;5.00;5.00;;;;;;;;5086491;28;8774;-48
2021/06/09 00:36:47;;;;;;;;;5.00;5.00;;;;;;;;5086296;28;8774;-49
2021/06/09 00:39:13;;;;;;;;;6.00;6.00;;;;;;;;5086635;28;8757;-48
2021/06/09 00:41:38;;;;;;;;;7.33;6.67;;;;;;;;5086158;28;8801;-48
2021/06/09 00:44:04;;;;;;;;;5.67;5.00;;;;;;;;5088590;28;8831;-48
2021/06/09 00:46:31;;;;;;;;;6.50;6.25;;;;;;;;5082350;28;8924;-48
2021/06/09 00:48:56;;;;;;;;;6.25;6.25;;;;;;;;5088022;28;9577;-48
2021/06/09 00:51:21;;;;;;;;;5.33;5.00;;;;;;;;5084922;28;8778;-48
2021/06/09 00:53:56;;;;;;;;;5.00;4.00;;;;;;;;5087414;28;8781;-48
2021/06/09 00:56:23;;;;;;;;;5.00;5.00;;;;;;;;5085310;28;8766;-48
2021/06/09 00:58:49;;;;;;;;;6.75;6.75;;;;;;;;5100923;28;8896;-48
2021/06/09 01:01:17;;;;;;;;;5.00;5.00;;;;;;;;5100749;27;8770;-48
2021/06/09 01:03:42;;;;;;;;;5.00;4.50;;;;;;;;5093755;28;8792;-48
2021/06/09 01:06:07;;;;;;;;;5.67;4.33;;;;;;;;5095733;27;8777;-48
2021/06/09 01:08:34;;;;;;;;;5.00;5.00;;;;;;;;5084584;28;9292;-48
2021/06/09 01:11:00;;;;;;;;;3.00;3.00;;;;;;;;5086294;28;8796;-48
2021/06/09 01:13:26;;;;;;;;;6.00;6.00;;;;;;;;5086469;28;8910;-48
2021/06/09 01:15:52;;;;;;;;;5.50;5.25;;;;;;;;5092308;27;8945;-48
2021/06/09 01:18:18;;;;;;;;;5.33;5.33;;;;;;;;5101370;28;8781;-49
2021/06/09 01:20:44;;;;;;;;;5.50;5.50;;;;;;;;5101385;27;8900;-48
2021/06/09 01:23:09;;;;;;;;;6.00;6.00;;;;;;;;5085429;28;8802;-48
2021/06/09 01:25:34;;;;;;;;;4.33;4.33;;;;;;;;5084661;28;8928;-48
2021/06/09 01:28:01;;;;;;;;;6.00;6.00;;;;;;;;5084885;28;9226;-48
2021/06/09 01:30:26;;;;;;;;;8.00;7.25;;;;;;;;5083873;28;8749;-48
2021/06/09 01:32:52;;;;;;;;;7.33;6.00;;;;;;;;5086341;28;8777;-48
2021/06/09 01:35:17;;;;;;;;;5.00;5.00;;;;;;;;5083747;28;9716;-48
2021/06/09 01:37:43;;;;;;;;;4.67;4.67;;;;;;;;5093712;28;11355;-48
2021/06/09 01:40:10;;;;;;;;;6.00;5.33;;;;;;;;5101698;27;8920;-48
2021/06/09 01:42:36;;;;;;;;;4.25;4.25;;;;;;;;5086015;28;8769;-49
2021/06/09 01:45:02;;;;;;;;;6.50;6.00;;;;;;;;5084820;28;8801;-48
2021/06/09 01:47:27;;;;;;;;;8.00;7.00;;;;;;;;5086698;28;8787;-48
2021/06/09 01:49:52;;;;;;;;;6.33;6.33;;;;;;;;5082184;28;8785;-48
2021/06/09 01:52:18;;;;;;;;;5.67;5.67;;;;;;;;5098645;28;9538;-48
2021/06/09 01:54:44;;;;;;;;;6.75;6.00;;;;;;;;5090122;28;9545;-48
2021/06/09 01:57:10;;;;;;;;;5.33;4.33;;;;;;;;5086204;28;8750;-48
2021/06/09 01:59:35;;;;;;;;;5.67;5.00;;;;;;;;5083116;28;8789;-48
2021/06/09 02:02:00;;;;;;;;;7.00;7.00;;;;;;;;5085978;28;8773;-48
2021/06/09 02:04:27;;;;;;;;;5.33;5.33;;;;;;;;5082317;28;8813;-48
2021/06/09 02:06:52;;;;;;;;;5.25;5.00;;;;;;;;5081978;28;8955;-49
2021/06/09 02:09:18;;;;;;;;;7.00;6.00;;;;;;;;5082529;28;8924;-48
2021/06/09 02:11:44;;;;;;;;;6.00;5.00;;;;;;;;5097705;28;8793;-48
2021/06/09 02:14:10;;;;;;;;;2.50;2.50;;;;;;;;5079207;28;8928;-48
2021/06/09 02:16:36;;;;;;;;;6.00;5.75;;;;;;;;5097552;27;9600;-48
2021/06/09 02:19:02;;;;;;;;;6.25;6.00;;;;;;;;5094673;27;8850;-48
2021/06/09 02:21:28;;;;;;;;;7.00;5.00;;;;;;;;5095520;28;8730;-48
2021/06/09 02:23:53;;;;;;;;;3.33;3.33;;;;;;;;5094129;27;8740;-48
2021/06/09 02:26:18;;;;;;;;;5.67;5.67;;;;;;;;5099536;27;8800;-48
2021/06/09 02:28:44;;;;;;;;;5.33;5.33;;;;;;;;5095283;27;8814;-48
2021/06/09 02:31:11;;;;;;;;;6.00;6.00;;;;;;;;5101670;28;8874;-48
2021/06/09 02:33:36;;;;;;;;;6.00;5.50;;;;;;;;5091649;27;8774;-48
2021/06/09 02:36:01;;;;;;;;;6.00;6.00;;;;;;;;5084756;28;8746;-48
2021/06/09 02:38:27;;;;;;;;;6.67;6.67;;;;;;;;5080153;28;8920;-48
2021/06/09 02:40:55;;;;;;;;;6.67;6.00;;;;;;;;5077769;28;8786;-48
2021/06/09 02:43:20;;;;;;;;;6.00;6.00;;;;;;;;5091848;28;8793;-48
2021/06/09 02:45:48;;;;;;;;;8.00;7.00;;;;;;;;5088836;28;8812;-48
2021/06/09 02:48:15;;;;;;;;;6.00;5.00;;;;;;;;5080431;28;8781;-48
2021/06/09 02:50:41;;;;;;;;;5.00;5.00;;;;;;;;5097999;28;8949;-48
2021/06/09 02:53:14;;;;;;;;;6.67;6.67;;;;;;;;5076391;28;8794;-48
2021/06/09 02:55:58;;;;;;;;;6.00;6.00;;;;;;;;5104900;27;8759;-49
2021/06/09 02:58:34;;;;;;;;;5.75;5.75;;;;;;;;5099341;27;8806;-48
2021/06/09 03:00:59;;;;;;;;;5.00;5.00;;;;;;;;5093002;27;8756;-48
2021/06/09 03:03:30;;;;;;;;;3.67;3.67;;;;;;;;5093822;28;8793;-48
2021/06/09 03:06:03;;;;;;;;;5.00;5.00;;;;;;;;5095840;28;8826;-49
2021/06/09 03:08:43;;;;;;;;;5.50;5.50;;;;;;;;5095024;28;8775;-48
2021/06/09 03:11:22;;;;;;;;;6.00;6.00;;;;;;;;5095975;27;8781;-48
2021/06/09 03:15:09;;;;;;;;;7.25;7.00;;;;;;;;5096795;28;8792;-48
2021/06/09 03:17:13;;;;;;;;;5.75;5.75;;;;;;;;5092778;28;8790;-48
2021/06/09 03:19:58;;;;;;;;;2.75;2.75;;;;;;;;5098780;28;8768;-48
2021/06/09 03:22:29;;;;;;;;;6.00;6.00;;;;;;;;5078595;28;8846;-48
2021/06/09 03:24:56;;;;;;;;;8.00;7.00;;;;;;;;5089155;28;8833;-48
2021/06/09 03:27:34;;;;;;;;;6.75;6.75;;;;;;;;5076539;28;8770;-48
2021/06/09 03:30:07;;;;;;;;;6.50;6.50;;;;;;;;5092712;28;8744;-48
2021/06/09 03:32:38;;;;;;;;;7.00;7.00;;;;;;;;5098238;28;9128;-47
2021/06/09 03:35:21;;;;;;;;;6.50;6.50;;;;;;;;5075769;28;8945;-48
2021/06/09 03:37:51;;;;;;;;;5.75;5.75;;;;;;;;5095195;28;8772;-48
2021/06/09 03:40:18;;;;;;;;;6.00;6.00;;;;;;;;5097320;28;8788;-48
2021/06/09 03:42:46;;;;;;;;;7.00;7.00;;;;;;;;5104771;27;8819;-47
2021/06/09 03:45:13;;;;;;;;;6.00;6.00;;;;;;;;5101962;27;8766;-48
2021/06/09 03:47:39;;;;;;;;;7.00;7.00;;;;;;;;5097189;28;8851;-48
2021/06/09 03:50:05;;;;;;;;;7.00;7.00;;;;;;;;5095253;27;8785;-47
2021/06/09 03:52:30;;;;;;;;;6.00;6.00;;;;;;;;5096373;28;10879;-47
2021/06/09 03:54:57;;;;;;;;;7.00;7.00;;;;;;;;5097383;27;11332;-48
2021/06/09 03:57:24;;;;;;;;;6.00;6.00;;;;;;;;5090865;28;8782;-47
2021/06/09 03:59:49;;;;;;;;;7.50;7.50;;;;;;;;5078876;27;8791;-48
2021/06/09 04:02:16;;;;;;;;;6.00;6.00;;;;;;;;5099391;28;8796;-48
2021/06/09 04:04:42;;;;;;;;;7.00;7.00;;;;;;;;5098546;27;8792;-47
2021/06/09 04:07:08;;;;;;;;;6.75;6.75;;;;;;;;5098344;28;8776;-47
2021/06/09 04:09:34;;;;;;;;;8.00;7.00;;;;;;;;5094002;28;8761;-48
2021/06/09 04:12:01;;;;;;;;;7.75;7.75;;;;;;;;5096149;28;8785;-48
2021/06/09 04:14:31;;;;;;;;;7.00;6.00;;;;;;;;5094623;28;8934;-48
2021/06/09 04:16:58;;;;;;;;;7.50;7.50;;;;;;;;5094424;28;8757;-47
2021/06/09 04:19:24;;;;;;;;;6.50;6.00;;;;;;;;5093285;28;8892;-47
2021/06/09 04:21:50;;;;;;;;;7.00;7.00;;;;;;;;5094659;28;8773;-48
2021/06/09 04:24:15;;;;;;;;;7.25;7.25;;;;;;;;5094075;28;8855;-48
2021/06/09 04:26:41;;;;;;;;;7.00;7.00;;;;;;;;5092043;28;8803;-47
2021/06/09 04:29:07;;;;;;;;;6.00;6.00;;;;;;;;5097459;28;8808;-48
2021/06/09 04:31:33;;;;;;;;;6.75;6.75;;;;;;;;5094568;28;8776;-47
2021/06/09 04:33:58;;;;;;;;;7.67;7.00;;;;;;;;5095754;28;8768;-48
2021/06/09 04:36:24;;;;;;;;;7.00;6.00;;;;;;;;5096888;28;8788;-48
2021/06/09 04:38:50;;;;;;;;;6.67;6.67;;;;;;;;5090771;28;8787;-47
2021/06/09 04:41:15;;;;;;;;;6.33;6.33;;;;;;;;5096940;28;8787;-47
2021/06/09 04:43:41;;;;;;;;;7.67;7.00;;;;;;;;5098022;27;8798;-48
2021/06/09 04:46:06;;;;;;;;;7.33;7.33;;;;;;;;5088522;28;8808;-47
2021/06/09 04:48:32;;;;;;;;;4.00;4.00;;;;;;;;5078538;28;8817;-48
2021/06/09 04:50:57;;;;;;;;;7.00;7.00;;;;;;;;5084749;28;8736;-48
2021/06/09 04:53:23;;;;;;;;;5.33;5.33;;;;;;;;5095599;28;8800;-47
2021/06/09 04:55:49;;;;;;;;;6.33;6.33;;;;;;;;5081120;28;8808;-48
2021/06/09 04:58:15;;;;;;;;;6.75;6.50;;;;;;;;5079028;28;9831;-47
2021/06/09 05:00:42;;;;;;;;;7.00;6.75;;;;;;;;5093957;27;8763;-48
2021/06/09 05:03:07;;;;;;;;;7.25;7.25;;;;;;;;5097807;27;8777;-48
2021/06/09 05:05:32;;;;;;;;;8.33;7.33;;;;;;;;5097227;28;8819;-47
2021/06/09 05:07:57;;;;;;;;;8.00;7.67;;;;;;;;5082840;28;8772;-47
2021/06/09 05:10:22;;;;;;;;;7.00;6.67;;;;;;;;5080755;28;9581;-47
2021/06/09 05:12:53;;;;;;;;;7.00;6.33;;;;;;;;5087153;27;8793;-48
2021/06/09 05:15:19;;;;;;;;;6.50;6.00;;;;;;;;5097068;28;8756;-48
2021/06/09 05:17:45;;;;;;;;;7.00;7.00;;;;;;;;5090664;28;8802;-48
2021/06/09 05:20:15;;;;;;;;;6.25;6.25;;;;;;;;5077031;28;8794;-48
2021/06/09 05:22:46;;;;;;;;;6.00;6.00;;;;;;;;5091945;27;8765;-48
2021/06/09 05:25:12;;;;;;;;;6.50;4.75;;;;;;;;5094735;28;8821;-48
2021/06/09 05:27:38;;;;;;;;;7.00;7.00;;;;;;;;5095449;27;8779;-48
2021/06/09 05:30:04;;;;;;;;;7.50;7.25;;;;;;;;5090436;28;9517;-48
2021/06/09 05:32:29;;;;;;;;;6.50;6.50;;;;;;;;5071397;28;8808;-48
2021/06/09 05:34:55;;;;;;;;;6.00;6.00;;;;;;;;5075452;28;8786;-49
2021/06/09 05:37:21;;;;;;;;;7.75;7.75;;;;;;;;5091822;27;8774;-49
2021/06/09 05:39:46;;;;;;;;;7.00;7.00;;;;;;;;5078777;28;8778;-47
2021/06/09 05:42:12;;;;;;;;;6.67;6.67;;;;;;;;5085146;28;8796;-48
2021/06/09 05:44:41;;;;;;;;;5.00;5.00;;;;;;;;5095857;27;8805;-49
2021/06/09 05:47:07;;;;;;;;;8.00;8.00;;;;;;;;5080187;28;8817;-49
2021/06/09 05:49:32;;;;;;;;;6.00;6.00;;;;;;;;5092918;27;8762;-48
2021/06/09 05:51:58;;;;;;;;;7.00;7.00;;;;;;;;5080243;28;8832;-48
2021/06/09 05:54:23;;;;;;;;;5.67;5.67;;;;;;;;5078441;28;8814;-48
2021/06/09 05:56:49;;;;;;;;;7.00;7.00;;;;;;;;5077784;28;8824;-48
2021/06/09 05:59:15;;;;;;;;;7.67;7.67;;;;;;;;5075602;28;8775;-50
2021/06/09 06:01:41;;;;;;;;;8.67;7.67;;;;;;;;5075595;27;8821;-47
2021/06/09 06:04:07;;;;;;;;;6.25;6.00;;;;;;;;5075826;28;8766;-47
2021/06/09 06:06:33;;;;;;;;;7.00;7.00;;;;;;;;5082737;28;8793;-47
2021/06/09 06:08:58;;;;;;;;;7.00;6.33;;;;;;;;5093867;27;8878;-47
2021/06/09 06:11:23;;;;;;;;;6.00;6.00;;;;;;;;5097111;27;8885;-47
2021/06/09 06:13:49;;;;;;;;;7.00;7.00;;;;;;;;5091910;27;8922;-47
2021/06/09 06:16:15;;;;;;;;;6.00;6.00;;;;;;;;5080554;28;8970;-48
2021/06/09 06:18:41;;;;;;;;;6.00;6.00;;;;;;;;5087827;28;10290;-47
2021/06/09 06:21:08;;;;;;;;;6.00;5.33;;;;;;;;5088887;27;8758;-47
2021/06/09 06:23:34;;;;;;;;;7.25;7.25;;;;;;;;5079320;28;8757;-48
2021/06/09 06:26:00;;;;;;;;;6.25;6.25;;;;;;;;5078742;28;8818;-48
2021/06/09 06:28:25;;;;;;;;;6.67;6.67;;;;;;;;5081441;28;8800;-48
2021/06/09 06:30:51;;;;;;;;;5.33;5.33;;;;;;;;5077612;28;8792;-48
2021/06/09 06:33:17;;;;;;;;;7.00;6.00;;;;;;;;5083970;28;9511;-48
2021/06/09 06:35:44;;;;;;;;;5.33;5.33;;;;;;;;5077791;28;8785;-48
2021/06/09 06:38:10;;;;;;;;;4.75;4.75;;;;;;;;5101584;28;8809;-48
2021/06/09 06:40:36;;;;;;;;;8.00;7.00;;;;;;;;5100104;27;9497;-48
2021/06/09 06:43:01;;;;;;;;;7.33;7.33;;;;;;;;5086370;28;9580;-48
2021/06/09 06:45:26;;;;;;;;;7.33;7.00;;;;;;;;5079173;28;8802;-48
2021/06/09 06:47:52;;;;;;;;;7.00;6.00;;;;;;;;5080953;28;8811;-47
2021/06/09 06:50:19;;;;;;;;;5.33;5.33;;;;;;;;5075973;28;8800;-48
2021/06/09 06:52:45;;;;;;;;;5.50;5.50;;;;;;;;5078010;28;8815;-48
2021/06/09 06:55:10;;;;;;;;;7.33;7.33;;;;;;;;5075140;28;9631;-48
2021/06/09 06:57:36;;;;;;;;;8.00;7.33;;;;;;;;5071955;28;8781;-48
2021/06/09 07:00:05;;;;;;;;;5.67;5.67;;;;;;;;5079368;28;8778;-48
2021/06/09 07:02:31;;;;;;;;;7.75;7.50;;;;;;;;5079953;28;8808;-48
2021/06/09 07:04:57;;;;;;;;;5.50;5.25;;;;;;;;5079566;28;8902;-48
2021/06/09 07:07:23;;;;;;;;;6.67;6.33;;;;;;;;5080363;28;9205;-48
2021/06/09 07:09:48;;;;;;;;;7.00;7.00;;;;;;;;5081889;28;8813;-48
2021/06/09 07:12:14;;;;;;;;;6.00;6.00;;;;;;;;5079221;28;8801;-48
2021/06/09 07:14:41;;;;;;;;;6.67;6.67;;;;;;;;5081424;28;8792;-48
2021/06/09 07:17:08;;;;;;;;;6.50;6.00;;;;;;;;5081373;28;8781;-48
2021/06/09 07:19:35;;;;;;;;;5.00;4.50;;;;;;;;5094912;27;8757;-48
2021/06/09 07:22:01;;;;;;;;;7.50;7.50;;;;;;;;5085432;28;8789;-48
2021/06/09 07:24:26;;;;;;;;;6.75;6.75;;;;;;;;5080196;28;8813;-48
2021/06/09 07:26:52;;;;;;;;;9.67;8.67;;;;;;;;5079902;28;8737;-48
2021/06/09 07:29:19;;;;;;;;;7.00;7.00;;;;;;;;5078952;28;9548;-47
2021/06/09 07:31:45;;;;;;;;;5.50;4.75;;;;;;;;5081572;28;8804;-48
2021/06/09 07:34:11;;;;;;;;;5.00;5.00;;;;;;;;5079039;28;8811;-47
2021/06/09 07:36:41;;;;;;;;;6.67;6.67;;;;;;;;5088666;28;10048;-48
2021/06/09 07:39:08;;;;;;;;;6.25;6.25;;;;;;;;5091049;28;8871;-48
2021/06/09 07:41:34;;;;;;;;;6.00;6.00;;;;;;;;5072565;28;8862;-47
2021/06/09 07:44:02;;;;;;;;;7.50;7.00;;;;;;;;5079565;28;9599;-48
2021/06/09 07:46:30;;;;;;;;;5.50;5.50;;;;;;;;5080376;28;8812;-48
2021/06/09 07:48:57;;;;;;;;;6.75;6.75;;;;;;;;5090420;28;8902;-48
2021/06/09 07:51:23;;;;;;;;;6.50;6.50;;;;;;;;5088191;28;9098;-48
2021/06/09 07:53:50;;;;;;;;;4.33;4.33;;;;;;;;5077911;28;9592;-48
2021/06/09 07:56:16;;;;;;;;;5.75;5.75;;;;;;;;5079043;28;8824;-48
2021/06/09 07:58:43;;;;;;;;;7.25;7.00;;;;;;;;5076309;28;8774;-47
2021/06/09 08:01:08;;;;;;;;;6.50;6.25;;;;;;;;5075992;28;8777;-48
2021/06/09 08:03:36;;;;;;;;;6.67;6.33;;;;;;;;5089802;28;8789;-48
2021/06/09 08:06:01;;;;;;;;;6.75;6.25;;;;;;;;5098018;28;8771;-48
2021/06/09 08:08:27;;;;;;;;;5.33;5.33;;;;;;;;5097457;28;8770;-48
2021/06/09 08:10:53;;;;;;;;;7.00;6.00;;;;;;;;5099204;28;8773;-48
2021/06/09 08:13:18;;;;;;;;;7.00;6.33;;;;;;;;5103317;28;8801;-48
2021/06/09 08:15:44;;;;;;;;;5.67;5.67;;;;;;;;5104811;27;8784;-48
2021/06/09 08:18:09;;;;;;;;;6.67;6.00;;;;;;;;5090804;28;8790;-48
2021/06/09 08:20:35;;;;;;;;;5.00;5.00;;;;;;;;5083251;28;8805;-47
2021/06/09 08:23:01;;;;;;;;;4.25;4.25;;;;;;;;5085250;28;8920;-48
2021/06/09 08:25:26;;;;;;;;;7.67;7.00;;;;;;;;5080316;28;8916;-48
2021/06/09 08:27:53;;;;;;;;;6.67;6.67;;;;;;;;5086436;28;9497;-48
2021/06/09 08:30:19;;;;;;;;;6.25;6.25;;;;;;;;5086230;28;8751;-48
2021/06/09 08:32:45;;;;;;;;;5.75;5.75;;;;;;;;5084702;28;8780;-48
2021/06/09 08:35:10;;;;;;;;;6.33;6.33;;;;;;;;5104577;27;8802;-48
2021/06/09 08:37:35;;;;;;;;;5.33;5.33;;;;;;;;5084233;28;8762;-48
2021/06/09 08:40:01;;;;;;;;;5.67;5.00;;;;;;;;5095606;28;9904;-48
2021/06/09 08:42:26;;;;;;;;;7.00;7.00;;;;;;;;5097513;27;8772;-48
2021/06/09 08:44:52;;;;;;;;;7.00;7.00;;;;;;;;5097872;28;8755;-48
2021/06/09 08:47:17;;;;;;;;;5.00;5.00;;;;;;;;5107500;27;8827;-48
2021/06/09 08:49:43;;;;;;;;;6.00;6.00;;;;;;;;5083013;28;8832;-48
2021/06/09 08:52:13;;;;;;;;;6.50;6.50;;;;;;;;5084915;28;8792;-48
2021/06/09 08:54:42;;;;;;;;;7.25;6.75;;;;;;;;5091371;28;8758;-47
2021/06/09 08:57:08;;;;;;;;;8.00;8.00;;;;;;;;5094921;27;8738;-48
2021/06/09 08:59:33;;;;;;;;;6.67;6.67;;;;;;;;5105966;28;8801;-48
2021/06/09 09:01:58;;;;;;;;;5.67;5.67;;;;;;;;5100261;28;9522;-47
2021/06/09 09:04:25;;;;;;;;;7.33;6.00;;;;;;;;5085915;28;9112;-48
2021/06/09 09:06:51;;;;;;;;;6.00;5.50;;;;;;;;5074931;28;8810;-48
2021/06/09 09:09:16;;;;;;;;;5.50;5.50;;;;;;;;5080776;28;8789;-48
2021/06/09 09:11:42;;;;;;;;;6.00;6.00;;;;;;;;5084892;28;8786;-47
2021/06/09 09:14:07;;;;;;;;;6.00;6.00;;;;;;;;5079028;28;8780;-48
2021/06/09 09:16:32;;;;;;;;;7.33;7.00;;;;;;;;5079534;28;8812;-48
2021/06/09 09:19:02;;;;;;;;;6.00;6.00;;;;;;;;5077964;28;8796;-48
2021/06/09 09:21:38;;;;;;;;;6.00;6.00;;;;;;;;5078120;28;8869;-49
2021/06/09 09:24:07;;;;;;;;;7.25;7.25;;;;;;;;5084900;28;8928;-48
2021/06/09 09:26:34;;;;;;;;;7.00;7.00;;;;;;;;5103757;28;8792;-47
2021/06/09 09:29:16;;;;;;;;;8.75;7.75;;;;;;;;5103384;27;8918;-48
2021/06/09 09:31:46;;;;;;;;;6.50;6.50;;;;;;;;5102615;28;8775;-48
2021/06/09 09:34:30;;;;;;;;;9.50;9.00;;;;;;;;5105938;27;8859;-48
2021/06/09 09:37:06;;;;;;;;;6.00;6.00;;;;;;;;5088143;27;8798;-48
2021/06/09 09:39:31;;;;;;;;;7.50;7.50;;;;;;;;5076421;28;8811;-48
2021/06/09 09:42:14;;;;;;;;;7.00;7.00;;;;;;;;5077379;28;8736;-48
2021/06/09 09:44:40;;;;;;;;;6.25;6.25;;;;;;;;5079281;28;8805;-48
2021/06/09 09:47:13;;;;;;;;;8.00;8.00;;;;;;;;5076540;28;8774;-48
2021/06/09 09:49:38;;;;;;;;;8.00;8.00;;;;;;;;5084906;28;8782;-48
2021/06/09 09:52:04;;;;;;;;;6.00;6.00;;;;;;;;5093087;27;8808;-48
2021/06/09 09:54:30;;;;;;;;;6.00;6.00;;;;;;;;5095553;28;8777;-48
2021/06/09 09:56:56;;;;;;;;;6.00;6.00;;;;;;;;5100777;27;8880;-48
2021/06/09 09:59:25;;;;;;;;;6.00;5.50;;;;;;;;5106364;27;8788;-47
2021/06/09 10:01:52;;;;;;;;;8.50;8.50;;;;;;;;5095483;27;9586;-48
2021/06/09 10:04:18;;;;;;;;;8.00;7.75;;;;;;;;5100003;27;8894;-48
2021/06/09 10:06:45;;;;;;;;;6.75;6.50;;;;;;;;5099414;28;8782;-48
2021/06/09 10:09:20;;;;;;;;;6.25;6.00;;;;;;;;5103950;27;8746;-48
2021/06/09 10:11:47;;;;;;;;;8.50;8.50;;;;;;;;5100222;27;8761;-47
2021/06/09 10:14:26;;;;;;;;;7.00;7.00;;;;;;;;5101605;28;8773;-48
2021/06/09 10:17:00;;;;;;;;;7.50;7.50;;;;;;;;5100687;27;10131;-48
2021/06/09 10:19:27;;;;;;;;;7.25;7.00;;;;;;;;5096424;27;8808;-48
2021/06/09 10:22:03;;;;;;;;;3.50;3.50;;;;;;;;5081089;28;8933;-48
2021/06/09 10:24:28;;;;;;;;;7.00;7.00;;;;;;;;5079182;28;8792;-48
2021/06/09 10:27:05;;;;;;;;;6.00;5.00;;;;;;;;5091911;28;8839;-48
2021/06/09 10:29:31;;;;;;;;;5.50;5.50;;;;;;;;5098626;27;8915;-48
2021/06/09 10:31:58;;;;;;;;;7.00;7.00;;;;;;;;5100970;27;8777;-48
2021/06/09 10:34:27;;;;;;;;;8.00;7.75;;;;;;;;5095255;27;8780;-48
2021/06/09 10:36:53;;;;;;;;;6.00;6.00;;;;;;;;5099016;27;8780;-48
2021/06/09 10:39:19;;;;;;;;;4.75;4.75;;;;;;;;5092968;28;8770;-48
2021/06/09 10:41:47;;;;;;;;;5.00;5.00;;;;;;;;5076224;28;9543;-48
2021/06/09 10:44:13;;;;;;;;;7.25;7.25;;;;;;;;5079078;28;8813;-48
2021/06/09 10:46:42;;;;;;;;;8.25;6.75;;;;;;;;5080011;28;8777;-48
2021/06/09 10:49:08;;;;;;;;;6.00;6.00;;;;;;;;5090699;27;8782;-48
2021/06/09 10:51:33;;;;;;;;;7.00;6.00;;;;;;;;5090259;27;8782;-48
2021/06/09 10:54:05;;;;;;;;;5.00;5.00;;;;;;;;5078939;28;8890;-48
2021/06/09 10:56:30;;;;;;;;;4.50;4.50;;;;;;;;5097838;27;8799;-48
2021/06/09 10:58:55;;;;;;;;;6.00;5.33;;;;;;;;5080416;28;8785;-48
2021/06/09 11:01:24;;;;;;;;;6.00;5.00;;;;;;;;5076547;28;9639;-48
2021/06/09 11:03:53;;;;;;;;;6.00;6.00;;;;;;;;5081242;28;8764;-48
2021/06/09 11:06:18;;;;;;;;;5.25;5.25;;;;;;;;5085315;27;8904;-48
2021/06/09 11:08:43;;;;;;;;;6.00;6.00;;;;;;;;5099497;27;8911;-48
2021/06/09 11:11:16;;;;;;;;;7.00;7.00;;;;;;;;5095443;27;8768;-48
2021/06/09 11:13:45;;;;;;;;;6.75;6.00;;;;;;;;5089807;27;8872;-48
2021/06/09 11:16:13;;;;;;;;;5.25;5.25;;;;;;;;5103702;27;8750;-48
2021/06/09 11:18:42;;;;;;;;;6.75;6.00;;;;;;;;5097527;27;8785;-48
2021/06/09 11:21:16;;;;;;;;;4.25;4.25;;;;;;;;5097352;28;8770;-48
2021/06/09 11:23:41;;;;;;;;;7.00;7.00;;;;;;;;5098326;27;8782;-48
2021/06/09 11:26:22;;;;;;;;;6.00;6.00;;;;;;;;5098094;27;8843;-48
2021/06/09 11:28:48;;;;;;;;;5.50;5.50;;;;;;;;5075491;28;8780;-47
2021/06/09 11:31:22;;;;;;;;;5.00;5.00;;;;;;;;5073531;28;8797;-48
2021/06/09 11:33:50;;;;;;;;;4.50;4.50;;;;;;;;5079030;28;8765;-48
2021/06/09 11:36:19;;;;;;;;;5.25;5.25;;;;;;;;5076777;28;8754;-48
2021/06/09 11:38:52;;;;;;;;;4.00;3.75;;;;;;;;5075027;28;8804;-48
2021/06/09 11:41:18;;;;;;;;;6.00;6.00;;;;;;;;5079205;28;8770;-48
2021/06/09 11:43:43;;;;;;;;;4.50;4.50;;;;;;;;5077053;28;8782;-48
2021/06/09 11:46:18;;;;;;;;;4.00;4.00;;;;;;;;5080654;28;8802;-48
2021/06/09 11:49:02;;;;;;;;;5.50;5.50;;;;;;;;5080245;28;8768;-48
2021/06/09 11:51:38;;;;;;;;;6.00;6.00;;;;;;;;5083602;28;8803;-48
2021/06/09 11:54:29;;;;;;;;;5.25;5.25;;;;;;;;5085836;28;8778;-48
2021/06/09 11:56:58;;;;;;;;;3.00;3.00;;;;;;;;5078066;28;8767;-48
2021/06/09 11:59:34;;;;;;;;;5.25;5.00;;;;;;;;5079073;28;9545;-48
2021/06/09 12:02:25;;;;;;;;;4.75;4.75;;;;;;;;5098861;27;8784;-48
2021/06/09 12:04:52;;;;;;;;;4.00;4.00;;;;;;;;5073127;28;8810;-47
2021/06/09 12:07:21;;;;;;;;;4.00;4.00;;;;;;;;5094800;28;10102;-48
2021/06/09 12:09:48;;;;;;;;;4.50;4.50;;;;;;;;5087470;27;8940;-48
2021/06/09 12:12:14;;;;;;;;;4.25;4.25;;;;;;;;5076733;28;8753;-49
2021/06/09 12:14:40;;;;;;;;;4.25;4.25;;;;;;;;5082099;28;8782;-48
2021/06/09 12:17:11;;;;;;;;;4.00;4.00;;;;;;;;5082018;28;8809;-49
2021/06/09 12:19:42;;;;;;;;;4.00;4.00;;;;;;;;5083074;28;8820;-49
2021/06/09 12:22:09;;;;;;;;;4.00;4.00;;;;;;;;5081428;28;8884;-49
2021/06/09 12:24:35;;;;;;;;;4.00;4.00;;;;;;;;5083277;28;8807;-49
2021/06/09 12:27:02;;;;;;;;;4.00;4.00;;;;;;;;5083096;28;8769;-49
2021/06/09 12:29:30;;;;;;;;;3.50;3.50;;;;;;;;5105214;28;8798;-47
2021/06/09 12:31:56;;;;;;;;;4.00;4.00;;;;;;;;5098176;27;8766;-47
2021/06/09 12:34:22;;;;;;;;;3.25;3.25;;;;;;;;5103971;27;8892;-47
2021/06/09 12:37:14;;;;;;;;;3.25;3.25;;;;;;;;5088833;28;8965;-47
2021/06/09 12:39:39;;;;;;;;;3.25;3.25;;;;;;;;5076142;28;8792;-47
2021/06/09 12:42:14;;;;;;;;;3.67;3.67;;;;;;;;5081460;28;8758;-47
2021/06/09 12:44:40;;;;;;;;;2.00;2.00;;;;;;;;5085177;28;8876;-47
2021/06/09 12:47:05;;;;;;;;;4.00;4.00;;;;;;;;5085542;28;8777;-47
2021/06/09 12:49:32;;;;;;;;;4.00;4.00;;;;;;;;5080839;28;8799;-47
2021/06/09 12:52:00;;;;;;;;;4.00;4.00;;;;;;;;5079122;28;9511;-47
2021/06/09 12:54:25;;;;;;;;;4.00;4.00;;;;;;;;5084480;28;8761;-48
2021/06/09 12:56:50;;;;;;;;;5.00;4.67;;;;;;;;5101001;27;8747;-47
2021/06/09 12:59:28;;;;;;;;;3.00;3.00;;;;;;;;5102399;27;9624;-48
2021/06/09 13:01:57;;;;;;;;;3.25;3.25;;;;;;;;5078754;28;8795;-48
2021/06/09 13:04:32;;;;;;;;;5.25;4.50;;;;;;;;5096892;27;8767;-48
2021/06/09 13:06:58;;;;;;;;;3.50;3.50;;;;;;;;5087077;28;8784;-48
2021/06/09 13:09:23;;;;;;;;;4.00;4.00;;;;;;;;5081280;28;8765;-48
2021/06/09 13:11:48;;;;;;;;;3.67;3.67;;;;;;;;5097101;28;8819;-48
2021/06/09 13:14:13;;;;;;;;;3.00;3.00;;;;;;;;5104665;27;8966;-49
2021/06/09 13:16:40;;;;;;;;;3.00;3.00;;;;;;;;5082129;28;8771;-48
2021/06/09 13:19:08;;;;;;;;;4.00;4.00;;;;;;;;5081828;28;8797;-48
2021/06/09 13:21:33;;;;;;;;;2.75;2.75;;;;;;;;5084999;27;8778;-46
2021/06/09 13:24:18;;;;;;;;;3.00;3.00;;;;;;;;5096382;27;8795;-48
2021/06/09 13:26:44;;;;;;;;;4.00;4.00;;;;;;;;5103524;27;8791;-47
2021/06/09 13:29:13;;;;;;;;;4.00;4.00;;;;;;;;5103470;27;8795;-47
2021/06/09 13:31:42;;;;;;;;;3.00;3.00;;;;;;;;5096526;28;8762;-47
2021/06/09 13:34:07;;;;;;;;;4.00;4.00;;;;;;;;5097298;27;9583;-48
2021/06/09 13:36:32;;;;;;;;;3.00;3.00;;;;;;;;5098723;27;8794;-47
2021/06/09 13:39:03;;;;;;;;;3.00;3.00;;;;;;;;5100563;27;8786;-47
2021/06/09 13:41:29;;;;;;;;;2.75;2.75;;;;;;;;5093713;27;8852;-47
2021/06/09 13:43:57;;;;;;;;;3.75;3.00;;;;;;;;5099349;28;9537;-48
2021/06/09 13:46:22;;;;;;;;;3.25;3.25;;;;;;;;5084292;28;8772;-48
2021/06/09 13:48:48;;;;;;;;;3.00;2.33;;;;;;;;5079572;28;8887;-47
2021/06/09 13:51:17;;;;;;;;;3.00;3.00;;;;;;;;5077904;28;8781;-47
2021/06/09 13:53:56;;;;;;;;;2.00;2.00;;;;;;;;5079934;28;8793;-47
2021/06/09 13:56:47;;;;;;;;;3.00;3.00;;;;;;;;5078460;28;8769;-47
2021/06/09 13:59:15;;;;;;;;;2.75;2.75;;;;;;;;5072328;28;8792;-49
2021/06/09 14:01:40;;;;;;;;;2.75;2.75;;;;;;;;5081530;28;8801;-49
2021/06/09 14:04:05;;;;;;;;;3.67;3.67;;;;;;;;5079156;28;8796;-49
2021/06/09 14:06:31;;;;;;;;;3.00;3.00;;;;;;;;5086696;28;8772;-49
2021/06/09 14:09:10;;;;;;;;;4.00;4.00;;;;;;;;5095612;28;8744;-49
2021/06/09 14:11:55;;;;;;;;;3.75;3.25;;;;;;;;5095831;27;8766;-49
2021/06/09 14:14:24;;;;;;;;;3.00;3.00;;;;;;;;5075360;28;8797;-48
2021/06/09 14:17:02;;;;;;;;;2.75;2.75;;;;;;;;5081135;28;8770;-48
2021/06/09 14:19:27;;;;;;;;;3.00;3.00;;;;;;;;5079250;28;8774;-49
2021/06/09 14:21:52;;;;;;;;;3.67;3.67;;;;;;;;5079071;28;8795;-49
2021/06/09 14:24:21;;;;;;;;;2.67;2.00;;;;;;;;5082654;27;8768;-48
2021/06/09 14:26:48;;;;;;;;;3.50;3.00;;;;;;;;5099242;28;8773;-48
2021/06/09 14:29:13;;;;;;;;;2.50;2.50;;;;;;;;5100229;28;8758;-48
2021/06/09 14:31:38;;;;;;;;;3.00;3.00;;;;;;;;5103097;27;8821;-48
2021/06/09 14:34:18;;;;;;;;;2.00;2.00;;;;;;;;5086880;28;8768;-48
2021/06/09 14:36:51;;;;;;;;;2.00;2.00;;;;;;;;5079640;28;8914;-48
2021/06/09 14:39:17;;;;;;;;;1.00;1.00;;;;;;;;5085960;27;8760;-49
2021/06/09 14:41:50;;;;;;;;;3.00;3.00;;;;;;;;5094359;28;8819;-49
2021/06/09 14:44:46;;;;;;;;;2.50;2.50;;;;;;;;5080023;28;8854;-49
2021/06/09 14:49:49;;;;;;;;;1.00;1.00;;;;;;;;5082326;28;8769;-49
2021/06/09 14:52:19;;;;;;;;;2.00;2.00;;;;;;;;5075578;28;8769;-48
2021/06/09 14:54:49;;;;;;;;;3.00;3.00;;;;;;;;5077342;28;8850;-48
2021/06/09 14:57:15;;;;;;;;;3.00;2.75;;;;;;;;5084141;28;8771;-49
2021/06/09 14:59:46;;;;;;;;;2.00;2.00;;;;;;;;5099598;28;8786;-49
2021/06/09 15:02:11;;;;;;;;;2.00;2.00;;;;;;;;5100335;27;8837;-49